Time;durP1;ratioP1;P1;durP2;ratioP2;P2;SDS_P1;SDS_P2;PMS_P1;PMS_P2;Temp;Humidity;BMP_temperature;BMP_pressure;BME280_temperature;BME280_humidity;BME280_pressure;Samples;Min_cycle;Max_cycle;Signal;HPM_P1;HPM_P2
2021/06/24 00:00:00;;;;;;;14.02;8.93;;;;;;;;;;2070271;28;20252;-58
2021/06/24 00:01:02;;;;;;;12.02;8.35;;;;;;;;;;2064051;28;20284;-55
2021/06/24 00:02:03;;;;;;;10.30;8.38;;;;;;;;;;2060366;28;20190;-58
2021/06/24 00:03:04;;;;;;;15.02;8.60;;;;;;;;;;2068951;28;20169;-59
2021/06/24 00:04:04;;;;;;;11.32;8.40;;;;;;;;;;2061650;28;20251;-57
2021/06/24 00:05:06;;;;;;;12.70;9.23;;;;;;;;;;2069055;28;20189;-58
2021/06/24 00:06:07;;;;;;;14.65;8.68;;;;;;;;;;2067164;28;20242;-59
2021/06/24 00:07:07;;;;;;;14.40;8.98;;;;;;;;;;2066781;28;20208;-61
2021/06/24 00:08:08;;;;;;;10.70;8.77;;;;;;;;;;2071899;28;20178;-60
2021/06/24 00:09:08;;;;;;;12.13;8.70;;;;;;;;;;2067184;28;20197;-60
2021/06/24 00:10:09;;;;;;;12.55;8.65;;;;;;;;;;2068552;28;20246;-61
2021/06/24 00:11:10;;;;;;;10.57;9.45;;;;;;;;;;2065282;28;20205;-59
2021/06/24 00:12:10;;;;;;;17.52;9.77;;;;;;;;;;2062083;28;20165;-60
2021/06/24 00:13:10;;;;;;;18.15;9.57;;;;;;;;;;2068841;28;20176;-59
2021/06/24 00:14:11;;;;;;;11.88;8.85;;;;;;;;;;2068645;28;20186;-58
2021/06/24 00:15:11;;;;;;;11.45;9.18;;;;;;;;;;2068873;28;20184;-60
2021/06/24 00:16:12;;;;;;;13.70;9.13;;;;;;;;;;2069524;28;20228;-60
2021/06/24 00:17:12;;;;;;;17.63;9.32;;;;;;;;;;2069938;28;20193;-60
2021/06/24 00:18:13;;;;;;;14.95;9.82;;;;;;;;;;2070144;28;20559;-60
2021/06/24 00:19:13;;;;;;;16.77;8.95;;;;;;;;;;2064357;28;20250;-60
2021/06/24 00:20:13;;;;;;;12.60;8.95;;;;;;;;;;2065350;28;20711;-59
2021/06/24 00:21:14;;;;;;;13.10;9.18;;;;;;;;;;2064971;28;20173;-62
2021/06/24 00:22:14;;;;;;;13.88;9.35;;;;;;;;;;2068675;28;20583;-63
2021/06/24 00:23:15;;;;;;;14.45;9.23;;;;;;;;;;2069395;28;20185;-61
2021/06/24 00:24:15;;;;;;;12.90;9.18;;;;;;;;;;2071606;28;20219;-60
2021/06/24 00:25:15;;;;;;;11.25;8.68;;;;;;;;;;2068528;28;20260;-60
2021/06/24 00:26:16;;;;;;;12.52;8.23;;;;;;;;;;2069154;28;20176;-61
2021/06/24 00:27:16;;;;;;;14.40;9.20;;;;;;;;;;2069176;28;20213;-61
2021/06/24 00:28:16;;;;;;;11.57;9.38;;;;;;;;;;2067710;28;20169;-61
2021/06/24 00:29:17;;;;;;;16.55;9.65;;;;;;;;;;2069109;28;20539;-61
2021/06/24 00:30:17;;;;;;;14.13;9.75;;;;;;;;;;2068570;28;20169;-60
2021/06/24 00:31:18;;;;;;;16.23;10.10;;;;;;;;;;2068934;28;20170;-63
2021/06/24 00:32:18;;;;;;;11.98;9.48;;;;;;;;;;2070566;28;20227;-63
2021/06/24 00:33:19;;;;;;;12.90;8.95;;;;;;;;;;2070936;28;20549;-62
2021/06/24 00:34:19;;;;;;;12.02;9.77;;;;;;;;;;2068583;28;20308;-62
2021/06/24 00:35:19;;;;;;;13.63;9.40;;;;;;;;;;2070005;28;20635;-62
2021/06/24 00:36:19;;;;;;;12.27;9.90;;;;;;;;;;2070270;28;20165;-62
2021/06/24 00:37:20;;;;;;;13.63;9.65;;;;;;;;;;2069414;28;20165;-62
2021/06/24 00:38:20;;;;;;;11.25;9.77;;;;;;;;;;2070663;28;20216;-61
2021/06/24 00:39:20;;;;;;;15.18;10.02;;;;;;;;;;2068408;28;20648;-60
2021/06/24 00:40:21;;;;;;;11.70;9.48;;;;;;;;;;2068934;28;20166;-61
2021/06/24 00:41:22;;;;;;;12.98;9.07;;;;;;;;;;2070552;28;20259;-62
2021/06/24 00:42:23;;;;;;;14.32;9.63;;;;;;;;;;2072432;28;20185;-59
2021/06/24 00:43:25;;;;;;;15.50;10.23;;;;;;;;;;2067705;28;20165;-57
2021/06/24 00:44:26;;;;;;;12.13;9.75;;;;;;;;;;2066816;28;20193;-61
2021/06/24 00:45:26;;;;;;;15.35;9.77;;;;;;;;;;2068466;28;20169;-59
2021/06/24 00:46:27;;;;;;;11.07;9.55;;;;;;;;;;2066439;28;20167;-62
2021/06/24 00:47:27;;;;;;;11.35;10.27;;;;;;;;;;2068706;28;20177;-60
2021/06/24 00:48:27;;;;;;;11.88;10.23;;;;;;;;;;2066526;28;20166;-60
2021/06/24 00:49:28;;;;;;;12.13;9.48;;;;;;;;;;2070565;28;20177;-60
2021/06/24 00:50:29;;;;;;;12.63;9.68;;;;;;;;;;2058086;28;20175;-59
2021/06/24 00:51:30;;;;;;;12.63;9.95;;;;;;;;;;2052523;28;20242;-62
2021/06/24 00:52:31;;;;;;;15.18;9.82;;;;;;;;;;2071507;28;20173;-63
2021/06/24 00:53:31;;;;;;;12.38;10.55;;;;;;;;;;2066659;28;20192;-61
2021/06/24 00:54:32;;;;;;;14.63;9.57;;;;;;;;;;2063447;28;20248;-61
2021/06/24 00:55:45;;;;;;;14.50;10.23;;;;;;;;;;2060449;28;20302;-60
2021/06/24 00:56:47;;;;;;;14.02;10.00;;;;;;;;;;2057827;28;20157;-63
2021/06/24 00:57:47;;;;;;;10.85;9.75;;;;;;;;;;2072964;28;20564;-60
2021/06/24 00:58:49;;;;;;;17.98;9.77;;;;;;;;;;2065181;28;20188;-60
2021/06/24 00:59:50;;;;;;;11.73;9.45;;;;;;;;;;2064485;28;20169;-59
2021/06/24 01:00:51;;;;;;;11.02;9.82;;;;;;;;;;2058667;28;20263;-60
2021/06/24 01:01:52;;;;;;;15.52;10.15;;;;;;;;;;2071760;28;20176;-61
2021/06/24 01:02:52;;;;;;;12.35;9.93;;;;;;;;;;2065495;28;20178;-58
2021/06/24 01:03:53;;;;;;;12.25;10.88;;;;;;;;;;2071814;28;20297;-63
2021/06/24 01:04:53;;;;;;;14.07;9.88;;;;;;;;;;2065901;28;20291;-62
2021/06/24 01:05:54;;;;;;;12.93;10.23;;;;;;;;;;2060308;28;20670;-60
2021/06/24 01:06:54;;;;;;;12.75;9.88;;;;;;;;;;2055654;28;20706;-60
2021/06/24 01:07:57;;;;;;;12.90;10.05;;;;;;;;;;2051044;28;20262;-60
2021/06/24 01:08:59;;;;;;;13.90;10.00;;;;;;;;;;2066994;28;20388;-61
2021/06/24 01:09:59;;;;;;;11.95;10.07;;;;;;;;;;2071683;28;20196;-61
2021/06/24 01:11:00;;;;;;;15.30;10.25;;;;;;;;;;2065295;28;20212;-59
2021/06/24 01:12:01;;;;;;;14.27;10.93;;;;;;;;;;2060795;28;20284;-62
2021/06/24 01:13:02;;;;;;;11.20;9.93;;;;;;;;;;2070799;28;20608;-61
2021/06/24 01:14:03;;;;;;;12.38;9.45;;;;;;;;;;2067310;28;20201;-62
2021/06/24 01:15:03;;;;;;;12.10;9.75;;;;;;;;;;2073141;28;20607;-59
2021/06/24 01:16:04;;;;;;;14.60;10.85;;;;;;;;;;2073055;28;20172;-61
2021/06/24 01:17:04;;;;;;;13.68;11.18;;;;;;;;;;2069285;28;20540;-62
2021/06/24 01:18:05;;;;;;;12.02;9.75;;;;;;;;;;2062352;28;20553;-60
2021/06/24 01:19:06;;;;;;;14.88;10.77;;;;;;;;;;2054060;28;20748;-62
2021/06/24 01:20:07;;;;;;;12.38;10.40;;;;;;;;;;2049985;28;20225;-62
2021/06/24 01:21:08;;;;;;;14.00;10.70;;;;;;;;;;2062509;28;20177;-62
2021/06/24 01:22:12;;;;;;;11.88;10.75;;;;;;;;;;2069116;28;20551;-58
2021/06/24 01:23:12;;;;;;;11.15;10.05;;;;;;;;;;2061313;28;20221;-61
2021/06/24 01:24:13;;;;;;;12.02;10.50;;;;;;;;;;2064434;28;20728;-62
2021/06/24 01:25:14;;;;;;;13.98;10.50;;;;;;;;;;2068969;28;20182;-60
2021/06/24 01:26:14;;;;;;;12.32;10.00;;;;;;;;;;2069011;28;20172;-59
2021/06/24 01:27:15;;;;;;;13.63;11.20;;;;;;;;;;2068718;28;20189;-60
2021/06/24 01:28:16;;;;;;;13.35;10.35;;;;;;;;;;2076951;28;20719;-61
2021/06/24 01:29:16;;;;;;;12.48;11.20;;;;;;;;;;2073763;28;20598;-63
2021/06/24 01:30:17;;;;;;;12.13;10.75;;;;;;;;;;2068556;28;20541;-61
2021/06/24 01:31:24;;;;;;;14.80;10.57;;;;;;;;;;2069080;28;20695;-59
2021/06/24 01:32:28;;;;;;;15.82;11.40;;;;;;;;;;2059540;28;20297;-61
2021/06/24 01:33:30;;;;;;;15.18;10.73;;;;;;;;;;2070789;28;20172;-61
2021/06/24 01:34:31;;;;;;;13.95;10.38;;;;;;;;;;2073707;28;20173;-63
2021/06/24 01:35:32;;;;;;;12.77;10.70;;;;;;;;;;2071301;28;20177;-61
2021/06/24 01:36:33;;;;;;;12.63;9.65;;;;;;;;;;2059605;28;20201;-58
2021/06/24 01:37:35;;;;;;;13.07;10.93;;;;;;;;;;2070027;28;20227;-61
2021/06/24 01:38:37;;;;;;;15.50;11.98;;;;;;;;;;2065692;28;20755;-61
2021/06/24 01:39:45;;;;;;;12.55;11.23;;;;;;;;;;2057108;28;20234;-61
2021/06/24 01:40:45;;;;;;;16.92;11.35;;;;;;;;;;2057563;28;20174;-63
2021/06/24 01:41:56;;;;;;;12.05;10.75;;;;;;;;;;2057114;28;20770;-60
2021/06/24 01:42:56;;;;;;;12.48;10.75;;;;;;;;;;2057411;28;20232;-62
2021/06/24 01:43:57;;;;;;;15.57;11.18;;;;;;;;;;2062973;28;20287;-62
2021/06/24 01:44:57;;;;;;;13.80;10.50;;;;;;;;;;2070917;28;20196;-62
2021/06/24 01:45:58;;;;;;;13.13;11.00;;;;;;;;;;2067653;28;20177;-61
2021/06/24 01:46:59;;;;;;;17.73;11.15;;;;;;;;;;2077801;28;20696;-62
2021/06/24 01:47:59;;;;;;;13.93;10.70;;;;;;;;;;2076619;28;20636;-63
2021/06/24 01:49:01;;;;;;;11.60;10.50;;;;;;;;;;2067052;28;20185;-58
2021/06/24 01:50:07;;;;;;;13.18;11.07;;;;;;;;;;2061124;28;20228;-59
2021/06/24 01:51:08;;;;;;;12.32;10.40;;;;;;;;;;2062971;28;20181;-60
2021/06/24 01:52:08;;;;;;;19.50;11.43;;;;;;;;;;2076514;28;20195;-57
2021/06/24 01:53:09;;;;;;;14.40;10.77;;;;;;;;;;2070580;28;20169;-56
2021/06/24 01:54:09;;;;;;;13.07;10.65;;;;;;;;;;2065218;28;20240;-57
2021/06/24 01:55:10;;;;;;;12.73;11.02;;;;;;;;;;2064287;28;20193;-59
2021/06/24 01:56:20;;;;;;;11.43;10.18;;;;;;;;;;2072578;28;20176;-56
2021/06/24 01:57:22;;;;;;;12.05;10.23;;;;;;;;;;2074805;28;20271;-60
2021/06/24 01:58:27;;;;;;;12.77;11.07;;;;;;;;;;2067088;28;20166;-59
2021/06/24 01:59:46;;;;;;;12.65;11.38;;;;;;;;;;2065082;28;20169;-61
2021/06/24 02:00:48;;;;;;;16.17;11.27;;;;;;;;;;2069616;28;20184;-63
2021/06/24 02:01:54;;;;;;;15.45;11.18;;;;;;;;;;2077853;28;20168;-62
2021/06/24 02:03:15;;;;;;;15.60;11.18;;;;;;;;;;2060817;28;20265;-61
2021/06/24 02:04:15;;;;;;;17.17;11.85;;;;;;;;;;2069084;28;20196;-62
2021/06/24 02:05:17;;;;;;;14.57;10.57;;;;;;;;;;2069737;28;20181;-59
2021/06/24 02:06:17;;;;;;;13.75;11.23;;;;;;;;;;2069347;28;20259;-61
2021/06/24 02:07:18;;;;;;;13.68;11.30;;;;;;;;;;2068822;28;20197;-60
2021/06/24 02:08:37;;;;;;;12.82;11.52;;;;;;;;;;2072566;28;20697;-62
2021/06/24 02:10:00;;;;;;;11.82;10.55;;;;;;;;;;2072778;28;20179;-60
2021/06/24 02:11:03;;;;;;;12.80;11.65;;;;;;;;;;2051632;28;20321;-58
2021/06/24 02:12:05;;;;;;;13.77;11.85;;;;;;;;;;2054295;28;20824;-59
2021/06/24 02:13:16;;;;;;;14.73;11.70;;;;;;;;;;2061916;28;20175;-62
2021/06/24 02:14:17;;;;;;;14.38;11.02;;;;;;;;;;2056480;28;20194;-61
2021/06/24 02:15:17;;;;;;;15.05;12.23;;;;;;;;;;2055864;28;20170;-62
2021/06/24 02:16:19;;;;;;;14.90;12.85;;;;;;;;;;2065976;28;20260;-63
2021/06/24 02:17:19;;;;;;;18.98;11.70;;;;;;;;;;2072689;28;20172;-61
2021/06/24 02:18:20;;;;;;;14.70;12.77;;;;;;;;;;2080643;28;20258;-62
2021/06/24 02:19:23;;;;;;;13.75;11.63;;;;;;;;;;2072835;28;20175;-62
2021/06/24 02:20:42;;;;;;;15.05;12.13;;;;;;;;;;2072822;28;20169;-60
2021/06/24 02:22:12;;;;;;;15.73;12.40;;;;;;;;;;2055521;28;20279;-62
2021/06/24 02:23:25;;;;;;;14.82;12.35;;;;;;;;;;2067088;28;20214;-54
2021/06/24 02:24:45;;;;;;;22.48;12.98;;;;;;;;;;2055834;28;20786;-61
2021/06/24 02:25:47;;;;;;;13.80;11.07;;;;;;;;;;2056235;28;20214;-57
2021/06/24 02:26:53;;;;;;;17.13;12.40;;;;;;;;;;2048597;28;20286;-59
2021/06/24 02:28:19;;;;;;;15.55;11.98;;;;;;;;;;2065413;28;20181;-57
2021/06/24 02:29:45;;;;;;;13.25;11.43;;;;;;;;;;2055944;28;20180;-61
2021/06/24 02:30:45;;;;;;;15.35;12.98;;;;;;;;;;2057525;28;20719;-55
2021/06/24 02:31:47;;;;;;;19.13;12.85;;;;;;;;;;2063135;28;20213;-56
2021/06/24 02:33:07;;;;;;;20.38;14.25;;;;;;;;;;2061177;28;20174;-58
2021/06/24 02:34:08;;;;;;;15.93;12.32;;;;;;;;;;2068942;28;20302;-58
2021/06/24 02:35:30;;;;;;;14.32;12.20;;;;;;;;;;2069766;28;20256;-56
2021/06/24 02:36:44;;;;;;;15.02;11.93;;;;;;;;;;2051443;28;20576;-59
2021/06/24 02:37:47;;;;;;;15.45;13.88;;;;;;;;;;2064158;28;20751;-59
2021/06/24 02:39:06;;;;;;;17.77;12.35;;;;;;;;;;2061250;28;20545;-55
2021/06/24 02:40:09;;;;;;;14.60;12.95;;;;;;;;;;2071715;28;20203;-58
2021/06/24 02:41:10;;;;;;;14.38;12.07;;;;;;;;;;2074785;28;20230;-60
2021/06/24 02:42:13;;;;;;;14.55;11.75;;;;;;;;;;2069276;28;20158;-61
2021/06/24 02:43:15;;;;;;;13.98;12.35;;;;;;;;;;2068359;28;20168;-57
2021/06/24 02:44:16;;;;;;;16.88;13.20;;;;;;;;;;2068893;28;20200;-58
2021/06/24 02:45:16;;;;;;;14.82;12.43;;;;;;;;;;2067371;28;20167;-56
2021/06/24 02:46:19;;;;;;;14.68;12.48;;;;;;;;;;2066510;28;20259;-59
2021/06/24 02:47:25;;;;;;;16.80;13.05;;;;;;;;;;2066805;28;20621;-61
2021/06/24 02:48:28;;;;;;;17.23;12.43;;;;;;;;;;2054198;28;20175;-63
2021/06/24 02:49:29;;;;;;;21.30;14.45;;;;;;;;;;2059553;28;20180;-61
2021/06/24 02:50:34;;;;;;;15.00;12.75;;;;;;;;;;2075067;28;20223;-61
2021/06/24 02:51:42;;;;;;;16.92;14.15;;;;;;;;;;2057903;28;20253;-58
2021/06/24 02:52:50;;;;;;;17.00;11.60;;;;;;;;;;2050874;28;20224;-56
2021/06/24 02:53:51;;;;;;;16.13;12.35;;;;;;;;;;2071368;28;20299;-61
2021/06/24 02:54:55;;;;;;;16.90;13.55;;;;;;;;;;2064423;28;20221;-60
2021/06/24 02:56:07;;;;;;;16.33;11.15;;;;;;;;;;2061459;28;20212;-59
2021/06/24 02:57:15;;;;;;;16.48;12.20;;;;;;;;;;2072546;28;20673;-60
2021/06/24 02:58:51;;;;;;;16.83;12.45;;;;;;;;;;2053160;28;20198;-59
2021/06/24 03:00:05;;;;;;;14.48;12.60;;;;;;;;;;2069066;28;20267;-58
2021/06/24 03:01:08;;;;;;;23.05;12.77;;;;;;;;;;2062194;28;20165;-59
2021/06/24 03:02:23;;;;;;;15.93;12.85;;;;;;;;;;2066373;28;20567;-58
2021/06/24 03:03:24;;;;;;;19.48;13.25;;;;;;;;;;2066883;28;20164;-58
2021/06/24 03:04:40;;;;;;;16.17;12.18;;;;;;;;;;2072126;28;20165;-60
2021/06/24 03:05:41;;;;;;;14.65;13.07;;;;;;;;;;2068477;28;20648;-56
2021/06/24 03:06:42;;;;;;;14.65;12.70;;;;;;;;;;2071373;28;20175;-58
2021/06/24 03:07:42;;;;;;;14.00;12.40;;;;;;;;;;2055778;28;20178;-59
2021/06/24 03:09:18;;;;;;;17.60;12.80;;;;;;;;;;2049355;28;20193;-58
2021/06/24 03:10:20;;;;;;;14.98;11.82;;;;;;;;;;2069468;28;20256;-59
2021/06/24 03:11:23;;;;;;;15.45;11.15;;;;;;;;;;2066292;28;20193;-59
2021/06/24 03:12:26;;;;;;;16.73;12.55;;;;;;;;;;2069260;28;20173;-59
2021/06/24 03:13:28;;;;;;;16.60;12.57;;;;;;;;;;2067163;28;20170;-56
2021/06/24 03:14:28;;;;;;;19.98;12.77;;;;;;;;;;2069992;28;20340;-58
2021/06/24 03:15:32;;;;;;;15.00;13.30;;;;;;;;;;2065747;28;20169;-56
2021/06/24 03:16:32;;;;;;;16.65;13.77;;;;;;;;;;2058410;28;20645;-58
2021/06/24 03:17:37;;;;;;;18.92;15.70;;;;;;;;;;2069869;28;20173;-56
2021/06/24 03:18:37;;;;;;;19.02;13.00;;;;;;;;;;2058418;28;20220;-58
2021/06/24 03:19:40;;;;;;;15.80;13.77;;;;;;;;;;2070693;28;20598;-60
2021/06/24 03:20:44;;;;;;;15.25;13.45;;;;;;;;;;2060260;28;20551;-59
2021/06/24 03:21:44;;;;;;;16.83;13.70;;;;;;;;;;2066579;28;20174;-55
2021/06/24 03:22:44;;;;;;;16.38;13.40;;;;;;;;;;2059626;28;20192;-57
2021/06/24 03:23:46;;;;;;;14.25;12.73;;;;;;;;;;2064090;28;20182;-58
2021/06/24 03:24:47;;;;;;;14.50;12.93;;;;;;;;;;2063543;28;20545;-57
2021/06/24 03:25:48;;;;;;;15.50;13.07;;;;;;;;;;2072511;28;20187;-59
2021/06/24 03:26:48;;;;;;;17.00;13.68;;;;;;;;;;2066946;28;20274;-60
2021/06/24 03:27:50;;;;;;;12.48;11.30;;;;;;;;;;2071332;28;20175;-57
2021/06/24 03:29:14;;;;;;;15.63;12.57;;;;;;;;;;2056380;28;20188;-57
2021/06/24 03:30:21;;;;;;;17.63;13.63;;;;;;;;;;2069254;28;20654;-60
2021/06/24 03:31:22;;;;;;;14.75;13.25;;;;;;;;;;2062733;28;20182;-57
2021/06/24 03:32:22;;;;;;;19.17;12.88;;;;;;;;;;2067119;28;20176;-62
2021/06/24 03:33:25;;;;;;;17.58;12.35;;;;;;;;;;2067816;28;20249;-57
2021/06/24 03:34:26;;;;;;;14.52;12.38;;;;;;;;;;2064430;28;20205;-60
2021/06/24 03:35:26;;;;;;;16.40;13.30;;;;;;;;;;2056171;28;20724;-60
2021/06/24 03:36:26;;;;;;;14.45;13.00;;;;;;;;;;2058267;28;20202;-59
2021/06/24 03:37:28;;;;;;;15.57;12.70;;;;;;;;;;2064051;28;20257;-56
2021/06/24 03:38:28;;;;;;;14.63;12.90;;;;;;;;;;2076221;28;20183;-59
2021/06/24 03:39:29;;;;;;;16.27;12.77;;;;;;;;;;2066804;28;20527;-58
2021/06/24 03:40:30;;;;;;;14.55;13.00;;;;;;;;;;2070030;28;20224;-61
2021/06/24 03:41:36;;;;;;;15.23;13.30;;;;;;;;;;2063714;28;20177;-58
2021/06/24 03:42:37;;;;;;;14.18;12.40;;;;;;;;;;2070787;28;20169;-61
2021/06/24 03:43:38;;;;;;;14.43;12.98;;;;;;;;;;2072475;28;20653;-58
2021/06/24 03:44:38;;;;;;;13.98;12.48;;;;;;;;;;2073082;28;20230;-60
2021/06/24 03:45:39;;;;;;;17.63;12.43;;;;;;;;;;2065805;28;20216;-62
2021/06/24 03:46:40;;;;;;;14.27;11.88;;;;;;;;;;2065144;28;20228;-58
2021/06/24 03:47:41;;;;;;;17.02;13.23;;;;;;;;;;2057767;28;20183;-60
2021/06/24 03:48:42;;;;;;;13.93;11.95;;;;;;;;;;2064249;28;20514;-61
2021/06/24 03:49:48;;;;;;;13.93;12.43;;;;;;;;;;2058926;28;20276;-59
2021/06/24 03:50:48;;;;;;;12.68;11.43;;;;;;;;;;2063898;28;20186;-60
2021/06/24 03:51:49;;;;;;;14.05;11.88;;;;;;;;;;2059726;28;20209;-61
2021/06/24 03:52:49;;;;;;;15.52;11.52;;;;;;;;;;2073632;28;20298;-61
2021/06/24 03:53:49;;;;;;;13.40;12.05;;;;;;;;;;2064155;28;20225;-61
2021/06/24 03:54:50;;;;;;;17.55;11.95;;;;;;;;;;2064848;28;20650;-59
2021/06/24 03:55:51;;;;;;;14.85;11.45;;;;;;;;;;2058285;28;20257;-60
2021/06/24 03:57:00;;;;;;;12.93;11.40;;;;;;;;;;2066397;28;20169;-60
2021/06/24 03:58:08;;;;;;;12.38;11.05;;;;;;;;;;2067979;28;20622;-60
2021/06/24 03:59:09;;;;;;;15.15;12.70;;;;;;;;;;2061782;28;20217;-60
2021/06/24 04:00:11;;;;;;;19.52;13.13;;;;;;;;;;2060705;28;20178;-59
2021/06/24 04:01:21;;;;;;;14.65;13.02;;;;;;;;;;2068093;28;20182;-61
2021/06/24 04:02:22;;;;;;;17.30;13.15;;;;;;;;;;2070782;28;20197;-56
2021/06/24 04:03:23;;;;;;;12.23;10.75;;;;;;;;;;2070324;28;20167;-59
2021/06/24 04:04:36;;;;;;;18.00;11.98;;;;;;;;;;2066766;28;20208;-63
2021/06/24 04:05:37;;;;;;;17.98;11.98;;;;;;;;;;2070190;28;20192;-59
2021/06/24 04:06:37;;;;;;;12.65;11.45;;;;;;;;;;2073624;28;20180;-61
2021/06/24 04:07:38;;;;;;;15.05;11.90;;;;;;;;;;2066378;28;20178;-58
2021/06/24 04:08:39;;;;;;;13.82;12.32;;;;;;;;;;2059670;28;20591;-60
2021/06/24 04:09:50;;;;;;;14.00;12.40;;;;;;;;;;2059250;28;20174;-60
2021/06/24 04:10:50;;;;;;;12.55;11.35;;;;;;;;;;2058372;28;20194;-59
2021/06/24 04:11:51;;;;;;;16.40;12.68;;;;;;;;;;2058035;28;20771;-57
2021/06/24 04:13:14;;;;;;;15.65;11.65;;;;;;;;;;2069919;28;20190;-59
2021/06/24 04:14:14;;;;;;;13.45;12.07;;;;;;;;;;2069866;28;20227;-56
2021/06/24 04:15:28;;;;;;;15.45;11.85;;;;;;;;;;2069247;28;20535;-59
2021/06/24 04:16:29;;;;;;;12.50;10.00;;;;;;;;;;2067637;28;20178;-60
2021/06/24 04:17:29;;;;;;;12.32;11.10;;;;;;;;;;2069147;28;20200;-59
2021/06/24 04:18:30;;;;;;;13.77;10.85;;;;;;;;;;2072387;28;20634;-60
2021/06/24 04:19:30;;;;;;;18.70;11.98;;;;;;;;;;2067479;28;20201;-59
2021/06/24 04:20:34;;;;;;;14.27;12.85;;;;;;;;;;2064879;28;20189;-61
2021/06/24 04:21:37;;;;;;;13.15;11.85;;;;;;;;;;2067628;28;20186;-60
2021/06/24 04:22:37;;;;;;;18.20;13.30;;;;;;;;;;2067146;28;20646;-61
2021/06/24 04:23:50;;;;;;;14.25;12.32;;;;;;;;;;2059434;28;20670;-58
2021/06/24 04:24:51;;;;;;;14.80;12.73;;;;;;;;;;2072938;28;20181;-60
2021/06/24 04:25:51;;;;;;;14.40;12.07;;;;;;;;;;2072845;28;20681;-61
2021/06/24 04:26:51;;;;;;;12.98;11.73;;;;;;;;;;2066803;28;20212;-61
2021/06/24 04:27:55;;;;;;;14.77;12.27;;;;;;;;;;2071247;28;20185;-60
2021/06/24 04:28:56;;;;;;;12.80;11.35;;;;;;;;;;2057930;28;20201;-60
2021/06/24 04:29:57;;;;;;;15.93;11.85;;;;;;;;;;2060891;28;20174;-60
2021/06/24 04:30:57;;;;;;;16.55;12.23;;;;;;;;;;2070345;28;20170;-60
2021/06/24 04:31:58;;;;;;;13.88;12.52;;;;;;;;;;2070742;28;20669;-61
2021/06/24 04:32:59;;;;;;;14.25;12.55;;;;;;;;;;2069299;28;20273;-62
2021/06/24 04:34:17;;;;;;;12.32;11.02;;;;;;;;;;2081411;23;20201;-58
2021/06/24 04:35:28;;;;;;;12.93;11.35;;;;;;;;;;2065227;28;20224;-58
2021/06/24 04:36:30;;;;;;;13.45;12.13;;;;;;;;;;2071778;28;20165;-58
2021/06/24 04:37:46;;;;;;;13.40;11.98;;;;;;;;;;2064410;28;20590;-58
2021/06/24 04:38:47;;;;;;;18.40;12.50;;;;;;;;;;2072974;28;20181;-54
2021/06/24 04:39:47;;;;;;;13.63;12.32;;;;;;;;;;2066020;28;20216;-55
2021/06/24 04:40:49;;;;;;;16.17;11.85;;;;;;;;;;2072231;28;20555;-58
2021/06/24 04:41:50;;;;;;;13.18;11.77;;;;;;;;;;2072421;28;20181;-59
2021/06/24 04:42:50;;;;;;;13.45;12.07;;;;;;;;;;2066087;28;20177;-56
2021/06/24 04:43:54;;;;;;;14.65;11.85;;;;;;;;;;2071699;28;20347;-54
2021/06/24 04:44:55;;;;;;;13.00;11.52;;;;;;;;;;2063308;28;20247;-62
2021/06/24 04:45:56;;;;;;;13.32;11.85;;;;;;;;;;2058792;28;20182;-60
2021/06/24 04:46:58;;;;;;;12.05;10.90;;;;;;;;;;2057225;28;20171;-62
2021/06/24 04:47:59;;;;;;;13.02;11.18;;;;;;;;;;2057312;28;20186;-62
2021/06/24 04:49:01;;;;;;;17.20;11.57;;;;;;;;;;2050968;28;20171;-57
2021/06/24 04:50:36;;;;;;;12.68;11.20;;;;;;;;;;2050269;28;20174;-57
2021/06/24 04:51:37;;;;;;;13.23;12.02;;;;;;;;;;2060805;28;20797;-55
2021/06/24 04:52:37;;;;;;;13.02;10.30;;;;;;;;;;2057350;28;20182;-60
2021/06/24 04:53:40;;;;;;;13.02;11.63;;;;;;;;;;2060555;28;20200;-60
2021/06/24 04:54:46;;;;;;;10.32;9.23;;;;;;;;;;2054978;28;20199;-52
2021/06/24 04:55:47;;;;;;;13.13;11.10;;;;;;;;;;2054785;28;20777;-59
2021/06/24 04:56:52;;;;;;;14.50;11.68;;;;;;;;;;2054990;28;20197;-53
2021/06/24 04:57:59;;;;;;;15.07;11.48;;;;;;;;;;2049573;28;20185;-53
2021/06/24 04:59:05;;;;;;;11.13;9.98;;;;;;;;;;2049865;28;20556;-58
2021/06/24 05:00:24;;;;;;;10.88;9.48;;;;;;;;;;2051720;28;20166;-55
2021/06/24 05:01:42;;;;;;;11.77;10.43;;;;;;;;;;2057132;28;20303;-54
2021/06/24 05:03:14;;;;;;;12.65;9.60;;;;;;;;;;2060030;28;20177;-57
2021/06/24 05:04:19;;;;;;;13.38;11.07;;;;;;;;;;2059946;28;20186;-59
2021/06/24 05:05:20;;;;;;;13.10;10.23;;;;;;;;;;2046545;28;20690;-58
2021/06/24 05:06:20;;;;;;;11.93;10.68;;;;;;;;;;2057261;28;20198;-55
2021/06/24 05:07:20;;;;;;;12.30;9.82;;;;;;;;;;2064045;28;20209;-57
2021/06/24 05:08:22;;;;;;;10.73;9.73;;;;;;;;;;2053879;28;20685;-57
2021/06/24 05:09:28;;;;;;;13.02;10.70;;;;;;;;;;2067542;28;20181;-54
2021/06/24 05:10:28;;;;;;;14.75;12.73;;;;;;;;;;2059348;28;20213;-57
2021/06/24 05:11:28;;;;;;;14.13;12.50;;;;;;;;;;2063299;28;20169;-57
2021/06/24 05:12:29;;;;;;;15.02;11.75;;;;;;;;;;2059418;28;20647;-57
2021/06/24 05:13:29;;;;;;;13.88;12.40;;;;;;;;;;2059553;28;20170;-59
2021/06/24 05:14:30;;;;;;;13.95;12.55;;;;;;;;;;2063841;28;20198;-55
2021/06/24 05:15:30;;;;;;;14.07;12.57;;;;;;;;;;2058905;28;20185;-54
2021/06/24 05:16:31;;;;;;;18.92;16.95;;;;;;;;;;2055341;28;20163;-59
2021/06/24 05:17:31;;;;;;;11.70;10.00;;;;;;;;;;2056414;28;20206;-60
2021/06/24 05:18:31;;;;;;;15.38;11.27;;;;;;;;;;2054586;28;20750;-58
2021/06/24 05:19:32;;;;;;;14.20;12.82;;;;;;;;;;2050172;28;20579;-57
2021/06/24 05:20:32;;;;;;;16.70;12.85;;;;;;;;;;2061970;28;20663;-60
2021/06/24 05:21:33;;;;;;;15.00;12.68;;;;;;;;;;2054620;28;20232;-60
2021/06/24 05:22:34;;;;;;;13.75;11.43;;;;;;;;;;2065965;28;20165;-63
2021/06/24 05:23:35;;;;;;;12.57;10.57;;;;;;;;;;2064875;28;20686;-57
2021/06/24 05:24:36;;;;;;;14.85;13.27;;;;;;;;;;2071815;28;20689;-60
2021/06/24 05:25:37;;;;;;;11.32;10.18;;;;;;;;;;2065905;28;20205;-60
2021/06/24 05:26:37;;;;;;;12.75;11.27;;;;;;;;;;2051078;28;20179;-61
2021/06/24 05:27:38;;;;;;;12.15;10.88;;;;;;;;;;2052643;28;20215;-59
2021/06/24 05:28:38;;;;;;;12.43;11.00;;;;;;;;;;2063358;28;20737;-57
2021/06/24 05:29:38;;;;;;;11.43;10.07;;;;;;;;;;2064518;28;20201;-56
2021/06/24 05:30:39;;;;;;;12.75;10.50;;;;;;;;;;2052394;28;20189;-56
2021/06/24 05:31:39;;;;;;;12.68;9.95;;;;;;;;;;2055433;28;20718;-60
2021/06/24 05:32:40;;;;;;;12.68;10.63;;;;;;;;;;2064248;28;20178;-62
2021/06/24 05:33:41;;;;;;;11.20;9.77;;;;;;;;;;2064560;28;20185;-59
2021/06/24 05:34:41;;;;;;;10.27;9.30;;;;;;;;;;2056058;28;20210;-60
2021/06/24 05:35:42;;;;;;;12.00;10.30;;;;;;;;;;2064275;28;20701;-61
2021/06/24 05:36:42;;;;;;;10.30;9.18;;;;;;;;;;2056429;28;20170;-55
2021/06/24 05:37:43;;;;;;;10.77;9.73;;;;;;;;;;2072385;28;20769;-61
2021/06/24 05:38:43;;;;;;;12.77;9.27;;;;;;;;;;2062927;28;20198;-58
2021/06/24 05:39:43;;;;;;;11.60;10.40;;;;;;;;;;2064973;28;20170;-56
2021/06/24 05:40:44;;;;;;;12.30;10.25;;;;;;;;;;2061300;28;20277;-61
2021/06/24 05:41:45;;;;;;;12.57;11.35;;;;;;;;;;2064501;28;20174;-60
2021/06/24 05:42:45;;;;;;;16.00;11.43;;;;;;;;;;2056724;28;20269;-60
2021/06/24 05:43:45;;;;;;;14.13;11.63;;;;;;;;;;2065553;28;20224;-56
2021/06/24 05:44:47;;;;;;;18.88;16.63;;;;;;;;;;2057004;28;20222;-60
2021/06/24 05:45:47;;;;;;;11.90;10.68;;;;;;;;;;2061116;28;20194;-60
2021/06/24 05:46:47;;;;;;;13.65;10.20;;;;;;;;;;2049469;28;20175;-59
2021/06/24 05:47:48;;;;;;;13.45;10.40;;;;;;;;;;2058070;28;20220;-57
2021/06/24 05:48:51;;;;;;;14.05;12.68;;;;;;;;;;2064430;28;20903;-59
2021/06/24 05:49:52;;;;;;;11.48;10.38;;;;;;;;;;2057609;28;20178;-60
2021/06/24 05:50:52;;;;;;;14.13;11.75;;;;;;;;;;2058198;28;20186;-55
2021/06/24 05:51:52;;;;;;;10.57;9.57;;;;;;;;;;2051985;28;20218;-58
2021/06/24 05:52:56;;;;;;;13.00;9.65;;;;;;;;;;2052513;28;20206;-55
2021/06/24 05:53:56;;;;;;;14.15;11.13;;;;;;;;;;2052461;28;20174;-53
2021/06/24 05:54:56;;;;;;;13.88;10.70;;;;;;;;;;2053377;28;20217;-54
2021/06/24 05:55:58;;;;;;;10.23;9.25;;;;;;;;;;2063726;28;20166;-62
2021/06/24 05:56:58;;;;;;;10.50;9.43;;;;;;;;;;2052034;28;20250;-57
2021/06/24 05:57:58;;;;;;;10.82;8.50;;;;;;;;;;2054478;28;20185;-54
2021/06/24 05:58:59;;;;;;;9.45;8.55;;;;;;;;;;2056909;28;20282;-56
2021/06/24 05:59:59;;;;;;;11.52;9.02;;;;;;;;;;2060679;28;20177;-56
2021/06/24 06:00:59;;;;;;;13.73;10.35;;;;;;;;;;2072320;28;20172;-55
2021/06/24 06:02:00;;;;;;;11.30;9.80;;;;;;;;;;2061997;28;20205;-55
2021/06/24 06:03:00;;;;;;;12.82;10.30;;;;;;;;;;2053200;28;20182;-56
2021/06/24 06:04:00;;;;;;;11.52;9.20;;;;;;;;;;2060533;28;20161;-57
2021/06/24 06:05:01;;;;;;;11.95;10.68;;;;;;;;;;2053287;28;20254;-55
2021/06/24 06:06:01;;;;;;;13.48;10.07;;;;;;;;;;2064131;28;20216;-58
2021/06/24 06:07:01;;;;;;;10.05;8.35;;;;;;;;;;2062353;28;20209;-57
2021/06/24 06:08:04;;;;;;;9.77;8.77;;;;;;;;;;2057561;28;20187;-54
2021/06/24 06:09:04;;;;;;;12.45;10.57;;;;;;;;;;2059366;28;20306;-59